createdAt,value
2023-03-01T00:00:05.149Z,15.76
2023-03-01T00:00:17.152Z,15.75
2023-03-01T00:00:28.157Z,15.76
2023-03-01T00:00:39.161Z,15.73
2023-03-01T00:00:51.148Z,15.75
2023-03-01T00:01:03.147Z,15.75
2023-03-01T00:01:14.151Z,15.76
2023-03-01T00:01:25.146Z,15.75
2023-03-01T00:01:36.151Z,15.75
2023-03-01T00:01:47.179Z,15.75
2023-03-01T00:01:59.217Z,15.75
2023-03-01T00:02:10.250Z,15.73
2023-03-01T00:02:22.167Z,15.75
2023-03-01T00:02:34.162Z,15.75
2023-03-01T00:02:46.143Z,15.76
2023-03-01T00:02:57.111Z,15.75
2023-03-01T00:03:08.231Z,15.73
2023-03-01T00:03:19.161Z,15.75
2023-03-01T00:03:31.233Z,15.75
2023-03-01T00:03:43.197Z,15.75
2023-03-01T00:03:54.154Z,15.75
2023-03-01T00:04:05.164Z,15.75
2023-03-01T00:04:17.171Z,15.75
2023-03-01T00:04:29.144Z,15.76
2023-03-01T00:04:41.137Z,15.73
2023-03-01T00:04:52.165Z,15.75
2023-03-01T00:05:04.139Z,15.75
2023-03-01T00:05:15.134Z,15.75
2023-03-01T00:05:26.133Z,15.73
2023-03-01T00:05:37.140Z,15.75
2023-03-01T00:05:48.150Z,15.76
2023-03-01T00:06:00.159Z,15.75
2023-03-01T00:06:12.169Z,15.75
2023-03-01T00:06:23.170Z,15.75
2023-03-01T00:06:35.189Z,15.76
2023-03-01T00:06:47.176Z,15.76
2023-03-01T00:06:59.167Z,15.75
2023-03-01T00:07:10.192Z,15.75
2023-03-01T00:07:22.180Z,15.75
2023-03-01T00:07:34.139Z,15.75
2023-03-01T00:07:45.140Z,15.76
2023-03-01T00:07:56.133Z,15.75
2023-03-01T00:08:07.122Z,15.73
2023-03-01T00:08:18.138Z,15.75
2023-03-01T00:08:29.153Z,15.75
2023-03-01T00:08:40.168Z,15.73
2023-03-01T00:08:52.158Z,15.75
2023-03-01T00:11:45.148Z,15.72
2023-03-01T00:11:46.172Z,15.72
2023-03-01T00:11:57.183Z,15.73
2023-03-01T00:12:09.216Z,15.72
2023-03-01T00:12:21.186Z,15.73
2023-03-01T00:12:33.180Z,15.70
2023-03-01T00:12:44.209Z,15.72
2023-03-01T00:12:55.120Z,15.73
2023-03-01T00:13:06.158Z,15.72
2023-03-01T00:13:18.148Z,15.73
2023-03-01T00:13:30.146Z,15.73
2023-03-01T00:13:42.155Z,15.72
2023-03-01T00:13:53.218Z,15.72
2023-03-01T00:14:04.141Z,15.73
2023-03-01T00:14:15.146Z,15.73
2023-03-01T00:14:26.147Z,15.73
2023-03-01T00:14:38.150Z,15.72
2023-03-01T00:14:50.167Z,15.72
2023-03-01T00:15:09.465Z,15.72
2023-03-01T00:15:13.135Z,15.72
2023-03-01T00:15:24.137Z,15.70
2023-03-01T00:15:35.130Z,15.72
2023-03-01T00:15:46.131Z,15.70
2023-03-01T00:15:57.126Z,15.72
2023-03-01T00:16:08.131Z,15.72
2023-03-01T00:16:19.211Z,15.70
2023-03-01T00:16:30.418Z,15.72
2023-03-01T00:16:41.189Z,15.72
2023-03-01T00:17:03.846Z,15.72
2023-03-01T00:17:05.172Z,15.70
2023-03-01T00:17:16.193Z,15.72
2023-03-01T00:17:28.194Z,15.70
2023-03-01T00:17:40.160Z,15.72
2023-03-01T00:17:51.160Z,15.72
2023-03-01T00:18:02.223Z,15.70
2023-03-01T00:18:14.181Z,15.70
2023-03-01T00:18:26.143Z,15.72
2023-03-01T00:18:37.134Z,15.72
2023-03-01T00:18:48.137Z,15.72
2023-03-01T00:18:59.169Z,15.70
2023-03-01T00:19:11.153Z,15.72
2023-03-01T00:19:22.165Z,15.72
2023-03-01T00:19:34.139Z,15.70
2023-03-01T00:19:45.797Z,15.72
2023-03-01T00:19:57.138Z,15.70
2023-03-01T00:20:08.152Z,15.70
2023-03-01T00:20:19.160Z,15.70
2023-03-01T00:20:31.193Z,15.68
2023-03-01T00:20:43.163Z,15.70
2023-03-01T00:20:54.168Z,15.70
2023-03-01T00:21:05.167Z,15.70
2023-03-01T00:21:16.139Z,15.70
2023-03-01T00:21:27.146Z,15.70
2023-03-01T00:21:38.168Z,15.70
2023-03-01T00:21:49.180Z,15.70
2023-03-01T00:22:01.154Z,15.72
2023-03-01T00:22:13.131Z,15.70
2023-03-01T00:22:24.133Z,15.70
2023-03-01T00:22:35.147Z,15.70
2023-03-01T00:22:46.165Z,15.70
2023-03-01T00:22:57.163Z,15.70
2023-03-01T00:23:09.171Z,15.70
2023-03-01T00:23:21.138Z,15.72
2023-03-01T00:23:32.148Z,15.70
2023-03-01T00:23:43.154Z,15.72
2023-03-01T00:23:54.163Z,15.68
2023-03-01T00:24:06.127Z,15.70
2023-03-01T00:24:25.341Z,15.70
2023-03-01T00:24:28.163Z,15.70
2023-03-01T00:24:40.159Z,15.68
2023-03-01T00:24:52.167Z,15.70
2023-03-01T00:26:19.209Z,15.68
2023-03-01T00:26:30.490Z,15.70
2023-03-01T00:26:41.162Z,15.68
2023-03-01T00:26:52.235Z,15.68
2023-03-01T00:28:18.108Z,15.67
2023-03-01T00:28:29.151Z,15.68
2023-03-01T00:28:41.143Z,15.68
2023-03-01T00:28:52.152Z,15.70
2023-03-01T00:29:03.152Z,15.68
2023-03-01T00:29:15.158Z,15.68
2023-03-01T00:29:26.155Z,15.68
2023-03-01T00:29:37.160Z,15.68
2023-03-01T00:29:48.164Z,15.67
2023-03-01T00:30:00.180Z,15.68
2023-03-01T00:30:12.143Z,15.68
2023-03-01T00:30:24.140Z,15.68
2023-03-01T00:30:35.186Z,15.68
2023-03-01T00:30:46.188Z,15.67
2023-03-01T00:30:57.298Z,15.67
2023-03-01T00:31:09.255Z,15.67
2023-03-01T00:31:20.151Z,15.68
2023-03-01T00:31:32.143Z,15.67
2023-03-01T00:31:43.126Z,15.68
2023-03-01T00:31:54.190Z,15.67
2023-03-01T00:32:05.217Z,15.68
2023-03-01T00:32:17.220Z,15.68
2023-03-01T00:32:29.216Z,15.67
2023-03-01T00:32:41.164Z,15.67
2023-03-01T00:32:52.154Z,15.67
2023-03-01T00:33:03.152Z,15.65
2023-03-01T00:33:14.154Z,15.68
2023-03-01T00:33:25.161Z,15.67
2023-03-01T00:33:36.147Z,15.67
2023-03-01T00:33:48.151Z,15.65
2023-03-01T00:33:59.147Z,15.65
2023-03-01T00:34:11.162Z,15.67
2023-03-01T00:34:23.143Z,15.65
2023-03-01T00:34:34.149Z,15.65
2023-03-01T00:34:46.131Z,15.65
2023-03-01T00:34:57.123Z,15.65
2023-03-01T00:35:08.134Z,15.65
2023-03-01T00:35:19.204Z,15.67
2023-03-01T00:35:31.206Z,15.67
2023-03-01T00:35:43.173Z,15.67
2023-03-01T00:35:55.176Z,15.67
2023-03-01T00:36:06.218Z,15.65
2023-03-01T00:36:18.195Z,15.65
2023-03-01T00:36:30.593Z,15.65
2023-03-01T00:36:42.151Z,15.65
2023-03-01T00:36:53.164Z,15.65
2023-03-01T00:37:05.142Z,15.65
2023-03-01T00:37:17.135Z,15.64
2023-03-01T00:37:28.141Z,15.65
2023-03-01T00:37:39.172Z,15.65
2023-03-01T00:37:51.143Z,15.64
2023-03-01T00:38:02.174Z,15.64
2023-03-01T00:38:14.142Z,15.64
2023-03-01T00:38:25.151Z,15.64
2023-03-01T00:38:36.148Z,15.65
2023-03-01T00:38:47.156Z,15.65
2023-03-01T00:38:58.151Z,15.62
2023-03-01T00:39:09.170Z,15.64
2023-03-01T00:39:21.156Z,15.64
2023-03-01T00:39:33.146Z,15.64
2023-03-01T00:39:44.150Z,15.64
2023-03-01T00:39:55.149Z,15.62
2023-03-01T00:40:06.166Z,15.64
2023-03-01T00:40:17.168Z,15.62
2023-03-01T00:40:29.145Z,15.64
2023-03-01T00:40:40.150Z,15.62
2023-03-01T00:40:51.137Z,15.64
2023-03-01T00:41:02.140Z,15.64
2023-03-01T00:41:14.166Z,15.64
2023-03-01T00:41:26.139Z,15.62
2023-03-01T00:41:37.145Z,15.62
2023-03-01T00:41:48.138Z,15.62
2023-03-01T00:41:59.147Z,15.64
2023-03-01T00:42:10.145Z,15.64
2023-03-01T00:42:21.149Z,15.64
2023-03-01T00:42:33.148Z,15.64
2023-03-01T00:42:45.130Z,15.64
2023-03-01T00:44:22.145Z,15.62
2023-03-01T00:45:39.185Z,15.62
2023-03-01T00:45:51.219Z,15.62
2023-03-01T00:46:02.207Z,15.62
2023-03-01T00:46:14.168Z,15.62
2023-03-01T00:46:25.145Z,15.62
2023-03-01T00:46:36.310Z,15.61
2023-03-01T00:46:48.167Z,15.62
2023-03-01T00:47:00.222Z,15.62
2023-03-01T00:47:12.200Z,15.62
2023-03-01T00:48:38.184Z,15.61
2023-03-01T00:48:50.166Z,15.61
2023-03-01T00:49:01.151Z,15.62
2023-03-01T00:49:12.155Z,15.62
2023-03-01T00:49:23.154Z,15.61
2023-03-01T00:49:34.158Z,15.61
2023-03-01T00:49:45.757Z,15.62
2023-03-01T00:49:57.155Z,15.61
2023-03-01T00:50:09.146Z,15.61
2023-03-01T00:50:20.151Z,15.61
2023-03-01T00:50:31.171Z,15.62
2023-03-01T00:50:43.131Z,15.59
2023-03-01T00:50:54.146Z,15.61
2023-03-01T00:51:05.154Z,15.61
2023-03-01T00:51:17.136Z,15.62
2023-03-01T00:51:28.143Z,15.61
2023-03-01T00:51:39.145Z,15.61
2023-03-01T00:53:02.197Z,15.59
2023-03-01T00:53:14.194Z,15.61
2023-03-01T00:53:26.159Z,15.59
2023-03-01T00:53:38.180Z,15.61
2023-03-01T00:56:15.800Z,15.57
2023-03-01T00:56:27.160Z,15.59
2023-03-01T00:56:39.142Z,15.58
2023-03-01T00:56:50.173Z,15.59
2023-03-01T00:57:02.145Z,15.58
2023-03-01T00:57:13.143Z,15.59
2023-03-01T00:57:24.145Z,15.59
2023-03-01T00:57:35.106Z,15.58
2023-03-01T00:57:46.118Z,15.58
2023-03-01T00:57:57.121Z,15.57
2023-03-01T00:58:08.109Z,15.58
2023-03-01T00:58:19.116Z,15.58
2023-03-01T00:58:30.136Z,15.58
2023-03-01T00:58:41.151Z,15.59
2023-03-01T00:58:52.153Z,15.59
2023-03-01T00:59:03.156Z,15.59
2023-03-01T00:59:15.140Z,15.58
2023-03-01T00:59:26.159Z,15.58
2023-03-01T01:01:47.183Z,15.55
2023-03-01T01:01:58.132Z,15.57
2023-03-01T01:02:09.203Z,15.57
2023-03-01T01:02:20.157Z,15.57
2023-03-01T01:02:31.194Z,15.58
2023-03-01T01:02:43.196Z,15.57
2023-03-01T01:02:54.162Z,15.58
2023-03-01T01:03:06.139Z,15.57
2023-03-01T01:03:17.144Z,15.59
2023-03-01T01:03:28.135Z,15.57
2023-03-01T01:03:39.173Z,15.58
2023-03-01T01:03:51.143Z,15.58
2023-03-01T01:04:02.145Z,15.58
2023-03-01T01:04:13.178Z,15.57
2023-03-01T01:04:25.133Z,15.57
2023-03-01T01:04:36.156Z,15.58
2023-03-01T01:04:47.159Z,15.57
2023-03-01T01:04:59.144Z,15.57
2023-03-01T01:05:11.131Z,15.57
2023-03-01T01:05:22.145Z,15.58
2023-03-01T01:05:33.162Z,15.58
2023-03-01T01:05:45.165Z,15.57
2023-03-01T01:05:57.158Z,15.58
2023-03-01T01:06:08.156Z,15.57
2023-03-01T01:06:19.159Z,15.57
2023-03-01T01:06:31.484Z,15.55
2023-03-01T01:06:42.114Z,15.58
2023-03-01T01:06:53.116Z,15.58
2023-03-01T01:07:04.115Z,15.57
2023-03-01T01:07:15.149Z,15.57
2023-03-01T01:07:26.133Z,15.57
2023-03-01T01:07:37.138Z,15.55
2023-03-01T01:07:48.142Z,15.57
2023-03-01T01:07:59.150Z,15.57
2023-03-01T01:08:10.163Z,15.57
2023-03-01T01:08:22.168Z,15.57
2023-03-01T01:08:34.131Z,15.57
2023-03-01T01:08:45.138Z,15.57
2023-03-01T01:10:54.198Z,15.55
2023-03-01T01:11:06.188Z,15.57
2023-03-01T01:11:18.147Z,15.57
2023-03-01T01:11:30.158Z,15.55
2023-03-01T01:11:41.155Z,15.55
2023-03-01T01:11:53.137Z,15.57
2023-03-01T01:12:04.142Z,15.57
2023-03-01T01:12:15.140Z,15.57
2023-03-01T01:12:26.144Z,15.55
2023-03-01T01:12:37.146Z,15.57
2023-03-01T01:12:48.136Z,15.58
2023-03-01T01:12:59.134Z,15.57
2023-03-01T01:13:11.147Z,15.57
2023-03-01T01:13:22.145Z,15.57
2023-03-01T01:13:33.136Z,15.57
2023-03-01T01:13:44.140Z,15.55
2023-03-01T01:13:55.161Z,15.55
2023-03-01T01:14:06.173Z,15.55
2023-03-01T01:14:17.133Z,15.57
2023-03-01T01:14:28.160Z,15.57
2023-03-01T01:14:39.156Z,15.57
2023-03-01T01:14:50.159Z,15.54
2023-03-01T01:15:01.163Z,15.57
2023-03-01T01:15:13.148Z,15.57
2023-03-01T01:15:36.529Z,15.55
2023-03-01T01:15:38.173Z,15.55
2023-03-01T01:15:50.243Z,15.55
2023-03-01T01:16:02.170Z,15.55
2023-03-01T01:16:14.256Z,15.55
2023-03-01T01:16:26.191Z,15.55
2023-03-01T01:16:38.152Z,15.55
2023-03-01T01:16:50.134Z,15.55
2023-03-01T01:17:02.129Z,15.55
2023-03-01T01:17:14.120Z,15.55
2023-03-01T01:17:25.139Z,15.55
2023-03-01T01:17:36.152Z,15.57
2023-03-01T01:17:48.140Z,15.55
2023-03-01T01:17:59.148Z,15.55
2023-03-01T01:18:11.143Z,15.54
2023-03-01T01:18:23.145Z,15.55
2023-03-01T01:18:34.137Z,15.55
2023-03-01T01:18:45.137Z,15.55
2023-03-01T01:18:56.152Z,15.55
2023-03-01T01:19:08.133Z,15.55
2023-03-01T01:19:19.150Z,15.55
2023-03-01T01:19:30.137Z,15.55
2023-03-01T01:19:41.135Z,15.55
2023-03-01T01:19:52.143Z,15.55
2023-03-01T01:20:03.146Z,15.55
2023-03-01T01:20:14.147Z,15.55
2023-03-01T01:20:26.137Z,15.55
2023-03-01T01:20:37.129Z,15.55
2023-03-01T01:20:48.134Z,15.55
2023-03-01T01:20:59.151Z,15.57
2023-03-01T01:21:10.157Z,15.55
2023-03-01T01:21:22.142Z,15.55
2023-03-01T01:21:33.157Z,15.55
2023-03-01T01:21:44.316Z,15.55
2023-03-01T01:21:55.155Z,15.54
2023-03-01T01:22:06.156Z,15.55
2023-03-01T01:22:17.152Z,15.55
2023-03-01T01:22:28.159Z,15.54
2023-03-01T01:22:40.138Z,15.55
2023-03-01T01:25:31.136Z,15.54
2023-03-01T01:27:23.158Z,15.54
2023-03-01T01:27:35.133Z,15.54
2023-03-01T01:27:59.850Z,15.54
2023-03-01T01:28:01.168Z,15.54
2023-03-01T01:28:13.147Z,15.55
2023-03-01T01:28:25.149Z,15.54
2023-03-01T01:28:36.159Z,15.55
2023-03-01T01:28:48.157Z,15.52
2023-03-01T01:29:00.126Z,15.54
2023-03-01T01:29:11.151Z,15.52
2023-03-01T01:29:22.147Z,15.54
2023-03-01T01:29:33.175Z,15.52
2023-03-01T01:29:45.842Z,15.54
2023-03-01T01:29:56.095Z,15.51
2023-03-01T01:30:07.097Z,15.52
2023-03-01T01:30:18.119Z,15.54
2023-03-01T01:30:29.122Z,15.52
2023-03-01T01:30:40.125Z,15.54
2023-03-01T01:30:51.171Z,15.54
2023-03-01T01:31:10.430Z,15.52
2023-03-01T01:31:14.178Z,15.52
2023-03-01T01:31:25.140Z,15.54
2023-03-01T01:31:36.219Z,15.52
2023-03-01T01:33:09.194Z,15.52
2023-03-01T01:33:21.173Z,15.52
2023-03-01T01:33:33.140Z,15.52
2023-03-01T01:33:45.135Z,15.54
2023-03-01T01:33:56.147Z,15.52
2023-03-01T01:34:08.153Z,15.52
2023-03-01T01:34:20.136Z,15.52
2023-03-01T01:34:31.167Z,15.54
2023-03-01T01:34:43.137Z,15.54
2023-03-01T01:35:09.755Z,15.52
2023-03-01T01:35:11.126Z,15.52
2023-03-01T01:35:22.212Z,15.52
2023-03-01T01:35:33.164Z,15.52
2023-03-01T01:35:45.141Z,15.52
2023-03-01T01:38:13.143Z,15.51
2023-03-01T01:38:25.149Z,15.52
2023-03-01T01:38:36.147Z,15.52
2023-03-01T01:40:18.129Z,15.49
2023-03-01T01:40:29.191Z,15.51
2023-03-01T01:40:41.154Z,15.51
2023-03-01T01:40:52.153Z,15.51
2023-03-01T01:44:49.921Z,15.47
2023-03-01T01:44:51.114Z,15.49
2023-03-01T01:45:02.149Z,15.49
2023-03-01T01:45:13.154Z,15.49
2023-03-01T01:45:24.150Z,15.49
2023-03-01T01:45:35.161Z,15.49
2023-03-01T01:45:47.137Z,15.49
2023-03-01T01:45:58.227Z,15.51
2023-03-01T01:46:09.149Z,15.47
2023-03-01T01:46:21.220Z,15.49
2023-03-01T01:46:32.599Z,15.51
2023-03-01T01:46:43.135Z,15.51
2023-03-01T01:46:54.147Z,15.49
2023-03-01T01:47:06.137Z,15.49
2023-03-01T01:47:17.151Z,15.51
2023-03-01T01:47:29.154Z,15.51
2023-03-01T01:47:41.128Z,15.49
2023-03-01T01:47:52.120Z,15.51
2023-03-01T01:48:04.151Z,15.51
2023-03-01T01:48:15.173Z,15.49
2023-03-01T01:48:27.134Z,15.49
2023-03-01T01:48:38.132Z,15.49
2023-03-01T01:48:49.122Z,15.51
2023-03-01T01:49:00.127Z,15.49
2023-03-01T01:49:11.147Z,15.51
2023-03-01T01:49:22.146Z,15.49
2023-03-01T01:49:33.166Z,15.49
2023-03-01T01:49:45.918Z,15.52
2023-03-01T01:49:56.143Z,15.49
2023-03-01T01:50:07.154Z,15.51
2023-03-01T01:50:18.160Z,15.47
2023-03-01T01:50:29.170Z,15.49
2023-03-01T01:50:41.139Z,15.49
2023-03-01T01:50:52.138Z,15.51
2023-03-01T01:51:03.131Z,15.49
2023-03-01T01:51:14.137Z,15.51
2023-03-01T01:51:26.124Z,15.49
2023-03-01T01:54:30.154Z,15.47
2023-03-01T01:54:42.120Z,15.49
2023-03-01T01:54:54.114Z,15.49
2023-03-01T01:55:05.120Z,15.47
2023-03-01T01:55:16.143Z,15.47
2023-03-01T01:55:27.161Z,15.47
2023-03-01T01:55:38.154Z,15.47
2023-03-01T01:55:50.162Z,15.47
2023-03-01T01:56:02.151Z,15.47
2023-03-01T01:56:13.133Z,15.46
2023-03-01T01:56:25.142Z,15.46
2023-03-01T01:56:36.142Z,15.47
2023-03-01T01:56:47.142Z,15.49
2023-03-01T01:56:58.146Z,15.46
2023-03-01T01:57:09.147Z,15.47
2023-03-01T01:57:21.128Z,15.47
2023-03-01T01:57:32.148Z,15.47
2023-03-01T01:57:44.153Z,15.46
2023-03-01T01:57:56.134Z,15.47
2023-03-01T01:58:07.140Z,15.47
2023-03-01T01:58:18.143Z,15.47
2023-03-01T01:58:29.158Z,15.46
2023-03-01T01:58:40.151Z,15.46
2023-03-01T02:01:08.093Z,15.44
2023-03-01T02:01:26.157Z,15.46
2023-03-01T02:01:30.142Z,15.44
2023-03-01T02:01:41.163Z,15.46
2023-03-01T02:06:25.097Z,15.43
2023-03-01T02:06:36.160Z,15.44
2023-03-01T02:06:47.147Z,15.42
2023-03-01T02:09:12.102Z,15.42
2023-03-01T02:09:23.132Z,15.43
2023-03-01T02:09:34.151Z,15.43
2023-03-01T02:09:46.162Z,15.43
2023-03-01T02:09:58.125Z,15.44
2023-03-01T02:10:09.132Z,15.43
2023-03-01T02:10:20.133Z,15.43
2023-03-01T02:10:31.144Z,15.44
2023-03-01T02:10:42.154Z,15.43
2023-03-01T02:10:53.151Z,15.44
2023-03-01T02:11:04.142Z,15.44
2023-03-01T02:11:15.147Z,15.44
2023-03-01T02:11:26.150Z,15.44
2023-03-01T02:11:38.133Z,15.43
2023-03-01T02:11:49.135Z,15.44
2023-03-01T02:12:00.166Z,15.43
2023-03-01T02:12:12.156Z,15.43
2023-03-01T02:12:24.143Z,15.46
2023-03-01T02:12:35.140Z,15.44
2023-03-01T02:12:46.159Z,15.43
2023-03-01T02:14:08.170Z,15.43
2023-03-01T02:14:20.140Z,15.44
2023-03-01T02:14:31.140Z,15.43
2023-03-01T02:14:42.142Z,15.43
2023-03-01T02:14:53.154Z,15.43
2023-03-01T02:15:05.117Z,15.42
2023-03-01T02:15:16.117Z,15.43
2023-03-01T02:15:27.142Z,15.43
2023-03-01T02:15:38.140Z,15.43
2023-03-01T02:15:49.182Z,15.43
2023-03-01T02:16:00.160Z,15.44
2023-03-01T02:16:11.237Z,15.43
2023-03-01T02:16:23.228Z,15.44
2023-03-01T02:16:35.481Z,15.43
2023-03-01T02:16:58.242Z,15.43
2023-03-01T02:16:59.105Z,15.42
2023-03-01T02:17:10.122Z,15.43
2023-03-01T02:23:45.182Z,15.39
2023-03-01T02:23:57.171Z,15.39
2023-03-01T02:24:09.143Z,15.40
2023-03-01T02:24:20.426Z,15.40
2023-03-01T02:24:31.122Z,15.42
2023-03-01T02:24:42.148Z,15.40
2023-03-01T02:24:53.152Z,15.42
2023-03-01T02:33:00.136Z,15.39
2023-03-01T02:33:12.115Z,15.39
2023-03-01T02:33:23.140Z,15.39
2023-03-01T02:33:35.113Z,15.39
2023-03-01T02:33:46.118Z,15.40
2023-03-01T02:33:57.110Z,15.39
2023-03-01T02:34:08.183Z,15.39
2023-03-01T02:34:19.106Z,15.39
2023-03-01T02:34:30.130Z,15.40
2023-03-01T02:34:42.125Z,15.40
2023-03-01T02:34:53.121Z,15.40
2023-03-01T02:35:05.116Z,15.40
2023-03-01T02:35:16.114Z,15.39
2023-03-01T02:35:27.168Z,15.40
2023-03-01T02:35:38.148Z,15.40
2023-03-01T02:35:49.165Z,15.40
2023-03-01T02:37:29.218Z,15.39
2023-03-01T02:39:14.161Z,15.37
2023-03-01T02:39:26.147Z,15.40
2023-03-01T02:39:37.140Z,15.39
2023-03-01T02:39:49.126Z,15.39
2023-03-01T02:40:00.153Z,15.40
2023-03-01T02:40:12.114Z,15.39
2023-03-01T02:40:23.125Z,15.40
2023-03-01T02:40:34.140Z,15.39
2023-03-01T02:42:10.124Z,15.39
2023-03-01T02:42:22.122Z,15.39
2023-03-01T02:42:34.123Z,15.40
2023-03-01T02:43:00.778Z,15.39
2023-03-01T02:43:02.090Z,15.39
2023-03-01T02:43:13.136Z,15.39
2023-03-01T02:43:24.162Z,15.39
2023-03-01T02:43:36.140Z,15.39
2023-03-01T02:47:42.155Z,15.36
2023-03-01T02:47:54.148Z,15.37
2023-03-01T02:48:06.128Z,15.36
2023-03-01T02:48:17.129Z,15.37
2023-03-01T02:48:28.115Z,15.37
2023-03-01T02:48:39.135Z,15.37
2023-03-01T02:48:50.154Z,15.37
2023-03-01T02:49:02.142Z,15.39
2023-03-01T02:49:14.128Z,15.37
2023-03-01T02:49:26.148Z,15.37
2023-03-01T02:49:37.138Z,15.37
2023-03-01T02:49:48.182Z,15.39
2023-03-01T02:50:00.185Z,15.39
2023-03-01T02:50:12.146Z,15.39
2023-03-01T02:50:24.154Z,15.37
2023-03-01T02:50:36.127Z,15.39
2023-03-01T02:50:47.148Z,15.39
2023-03-01T02:52:08.144Z,15.36
2023-03-01T02:52:20.131Z,15.37
2023-03-01T02:52:31.122Z,15.39
2023-03-01T02:52:42.223Z,15.37
2023-03-01T02:52:53.153Z,15.36
2023-03-01T02:53:04.146Z,15.36
2023-03-01T02:53:15.151Z,15.37
2023-03-01T02:53:27.109Z,15.37
2023-03-01T02:53:38.130Z,15.36
2023-03-01T02:53:50.145Z,15.37
2023-03-01T02:54:01.138Z,15.39
2023-03-01T02:54:12.094Z,15.37
2023-03-01T02:54:24.114Z,15.39
2023-03-01T02:54:35.114Z,15.37
2023-03-01T02:54:46.112Z,15.37
2023-03-01T02:54:58.118Z,15.37
2023-03-01T02:55:09.143Z,15.37
2023-03-01T02:55:20.151Z,15.36
2023-03-01T02:55:32.118Z,15.37
2023-03-01T02:55:43.084Z,15.36
2023-03-01T02:55:54.174Z,15.39
2023-03-01T02:56:05.172Z,15.37
2023-03-01T02:56:17.148Z,15.37
2023-03-01T02:56:29.428Z,15.37
2023-03-01T02:56:40.118Z,15.37
2023-03-01T02:56:51.121Z,15.36
2023-03-01T02:57:02.150Z,15.39
2023-03-01T02:57:14.112Z,15.37
2023-03-01T02:57:25.135Z,15.37
2023-03-01T02:57:36.153Z,15.39
2023-03-01T02:57:48.122Z,15.37
2023-03-01T02:57:59.087Z,15.37
2023-03-01T02:58:10.090Z,15.39
2023-03-01T02:58:21.104Z,15.37
2023-03-01T02:58:32.112Z,15.39
2023-03-01T02:58:43.135Z,15.36
2023-03-01T02:58:55.134Z,15.37
2023-03-01T02:59:07.121Z,15.37
2023-03-01T02:59:18.129Z,15.39
2023-03-01T02:59:29.133Z,15.37
2023-03-01T02:59:41.115Z,15.37
2023-03-01T02:59:52.130Z,15.37
2023-03-01T03:00:04.126Z,15.36
2023-03-01T03:00:15.146Z,15.37
2023-03-01T03:00:27.130Z,15.36
2023-03-01T03:00:39.138Z,15.36
2023-03-01T03:00:51.127Z,15.37
2023-03-01T03:01:02.249Z,15.37
2023-03-01T03:01:14.165Z,15.37
2023-03-01T03:01:26.149Z,15.37
2023-03-01T03:01:37.145Z,15.36
2023-03-01T03:03:30.191Z,15.33
2023-03-01T03:03:42.198Z,15.35
2023-03-01T03:03:54.108Z,15.35
2023-03-01T03:04:05.179Z,15.36
2023-03-01T03:04:16.091Z,15.36
2023-03-01T03:04:27.117Z,15.35
2023-03-01T03:04:38.138Z,15.35
2023-03-01T03:04:49.131Z,15.36
2023-03-01T03:05:00.131Z,15.35
2023-03-01T03:05:11.137Z,15.36
2023-03-01T03:05:22.133Z,15.35
2023-03-01T03:05:33.153Z,15.35
2023-03-01T03:05:45.139Z,15.36
2023-03-01T03:05:57.143Z,15.35
2023-03-01T03:06:09.135Z,15.33
2023-03-01T03:06:20.138Z,15.35
2023-03-01T03:06:31.517Z,15.35
2023-03-01T03:06:43.153Z,15.35
2023-03-01T03:06:54.125Z,15.35
2023-03-01T03:07:05.135Z,15.36
2023-03-01T03:07:16.157Z,15.35
2023-03-01T03:07:28.121Z,15.36
2023-03-01T03:07:40.126Z,15.36
2023-03-01T03:07:52.109Z,15.35
2023-03-01T03:08:03.178Z,15.35
2023-03-01T03:08:14.161Z,15.35
2023-03-01T03:10:03.112Z,15.35
2023-03-01T03:10:14.133Z,15.35
2023-03-01T03:10:25.140Z,15.35
2023-03-01T03:10:36.159Z,15.36
2023-03-01T03:10:48.130Z,15.37
2023-03-01T03:18:08.190Z,15.29
2023-03-01T03:18:20.249Z,15.31
2023-03-01T03:18:31.146Z,15.29
2023-03-01T03:18:42.180Z,15.31
2023-03-01T03:20:07.195Z,15.29
2023-03-01T03:20:19.157Z,15.31
2023-03-01T03:20:31.137Z,15.31
2023-03-01T03:20:42.149Z,15.31
2023-03-01T03:20:54.123Z,15.29
2023-03-01T03:21:06.119Z,15.29
2023-03-01T03:21:18.114Z,15.31
2023-03-01T03:21:29.128Z,15.31
2023-03-01T03:23:06.167Z,15.29
2023-03-01T03:23:18.132Z,15.29
2023-03-01T03:23:29.134Z,15.31
2023-03-01T03:23:40.132Z,15.29
2023-03-01T03:23:52.140Z,15.31
2023-03-01T03:24:04.145Z,15.31
2023-03-01T03:24:15.143Z,15.33
2023-03-01T03:24:26.193Z,15.33
2023-03-01T03:24:38.163Z,15.31
2023-03-01T03:24:50.131Z,15.31
2023-03-01T03:25:02.117Z,15.31
2023-03-01T03:25:13.117Z,15.29
2023-03-01T03:25:24.136Z,15.31
2023-03-01T03:25:36.111Z,15.31
2023-03-01T03:25:47.113Z,15.31
2023-03-01T03:25:59.112Z,15.31
2023-03-01T03:26:10.125Z,15.31
2023-03-01T03:26:21.134Z,15.31
2023-03-01T03:26:33.394Z,15.31
2023-03-01T03:26:45.118Z,15.31
2023-03-01T03:26:56.129Z,15.29
2023-03-01T03:28:19.109Z,15.29
2023-03-01T03:28:30.121Z,15.31
2023-03-01T03:28:41.121Z,15.31
2023-03-01T03:28:52.110Z,15.31
2023-03-01T03:29:03.123Z,15.31
2023-03-01T03:29:14.107Z,15.29
2023-03-01T03:29:25.129Z,15.31
2023-03-01T03:29:36.130Z,15.31
2023-03-01T03:29:48.119Z,15.31
2023-03-01T03:29:59.139Z,15.31
2023-03-01T03:30:10.130Z,15.31
2023-03-01T03:30:21.118Z,15.31
2023-03-01T03:30:33.131Z,15.29
2023-03-01T03:30:44.145Z,15.31
2023-03-01T03:30:56.110Z,15.31
2023-03-01T03:31:07.196Z,15.29
2023-03-01T03:31:18.122Z,15.29
2023-03-01T03:31:29.154Z,15.31
2023-03-01T03:31:41.189Z,15.33
2023-03-01T03:31:53.322Z,15.29
2023-03-01T03:32:05.181Z,15.29
2023-03-01T03:32:16.131Z,15.29
2023-03-01T03:39:31.770Z,15.25
2023-03-01T03:39:42.795Z,15.28
2023-03-01T03:39:54.659Z,15.27
2023-03-01T03:40:05.764Z,15.28
2023-03-01T03:40:16.758Z,15.28
2023-03-01T03:40:27.767Z,15.27
2023-03-01T03:40:38.763Z,15.27
2023-03-01T03:40:50.757Z,15.28
2023-03-01T03:41:01.768Z,15.27
2023-03-01T03:41:12.762Z,15.28
2023-03-01T03:41:23.752Z,15.29
2023-03-01T03:41:34.770Z,15.27
2023-03-01T03:41:45.771Z,15.29
2023-03-01T03:41:56.769Z,15.29
2023-03-01T03:42:07.798Z,15.27
2023-03-01T03:42:19.758Z,15.28
2023-03-01T03:42:30.754Z,15.29
2023-03-01T03:42:41.753Z,15.28
2023-03-01T03:42:52.758Z,15.29
2023-03-01T03:43:03.762Z,15.27
2023-03-01T03:43:14.761Z,15.28
2023-03-01T03:43:26.737Z,15.29
2023-03-01T03:43:37.742Z,15.28
2023-03-01T03:43:48.763Z,15.28
2023-03-01T03:43:59.756Z,15.28
2023-03-01T03:44:10.754Z,15.28
2023-03-01T03:44:22.752Z,15.28
2023-03-01T03:44:33.772Z,15.29
2023-03-01T03:48:21.105Z,15.27
2023-03-01T03:48:32.127Z,15.27
2023-03-01T03:48:44.106Z,15.28
2023-03-01T03:48:55.126Z,15.28
2023-03-01T03:49:06.125Z,15.29
2023-03-01T03:49:17.110Z,15.28
2023-03-01T03:49:28.129Z,15.27
2023-03-01T03:49:39.126Z,15.27
2023-03-01T03:49:51.125Z,15.29
2023-03-01T03:50:02.158Z,15.27
2023-03-01T03:50:14.142Z,15.28
2023-03-01T03:50:26.149Z,15.29
2023-03-01T03:50:38.105Z,15.28
2023-03-01T03:50:49.177Z,15.29
2023-03-01T03:51:01.146Z,15.28
2023-03-01T03:51:13.108Z,15.27
2023-03-01T03:51:24.141Z,15.29
2023-03-01T03:51:36.112Z,15.28
2023-03-01T03:51:48.107Z,15.28
2023-03-01T03:52:00.138Z,15.28
2023-03-01T03:52:11.130Z,15.29
2023-03-01T03:52:23.160Z,15.29
2023-03-01T03:52:35.195Z,15.28
2023-03-01T03:52:47.152Z,15.29
2023-03-01T03:52:59.126Z,15.31
2023-03-01T03:53:11.113Z,15.28
2023-03-01T03:53:22.133Z,15.28
2023-03-01T03:53:34.116Z,15.28
2023-03-01T03:57:16.024Z,15.27
2023-03-01T03:57:27.129Z,15.27
2023-03-01T03:57:38.137Z,15.27
2023-03-01T03:57:49.166Z,15.25
2023-03-01T03:58:01.125Z,15.25
2023-03-01T03:58:12.136Z,15.25
2023-03-01T03:58:24.104Z,15.27
2023-03-01T03:58:35.109Z,15.27
2023-03-01T03:58:46.113Z,15.25
2023-03-01T03:58:57.123Z,15.28
2023-03-01T03:59:08.123Z,15.27
2023-03-01T03:59:20.104Z,15.25
2023-03-01T03:59:31.126Z,15.27
2023-03-01T03:59:42.129Z,15.27
2023-03-01T03:59:53.129Z,15.27
2023-03-01T04:00:05.138Z,15.27
2023-03-01T04:00:17.101Z,15.27
2023-03-01T04:00:28.127Z,15.27
2023-03-01T04:00:39.097Z,15.27
2023-03-01T04:00:50.112Z,15.25
2023-03-01T04:01:01.117Z,15.27
2023-03-01T04:01:12.173Z,15.27
2023-03-01T04:01:23.163Z,15.28
2023-03-01T04:01:34.097Z,15.28
2023-03-01T04:01:45.142Z,15.27